sensor_id;sensor_type;location;lat;lon;timestamp;temperature;humidity
20498;DHT22;10407;53.238;10.448;2022-10-16T00:01:36;14.30;99.90
20498;DHT22;10407;53.238;10.448;2022-10-16T00:04:05;14.50;99.90
20498;DHT22;10407;53.238;10.448;2022-10-16T00:06:33;14.50;99.90
20498;DHT22;10407;53.238;10.448;2022-10-16T00:09:00;14.50;99.90
20498;DHT22;10407;53.238;10.448;2022-10-16T00:11:30;14.40;99.90
20498;DHT22;10407;53.238;10.448;2022-10-16T00:14:01;14.40;99.90
20498;DHT22;10407;53.238;10.448;2022-10-16T00:16:29;14.50;99.90
20498;DHT22;10407;53.238;10.448;2022-10-16T00:18:57;14.50;99.90
20498;DHT22;10407;53.238;10.448;2022-10-16T00:21:27;14.40;99.90
20498;DHT22;10407;53.238;10.448;2022-10-16T00:23:57;14.40;99.90
20498;DHT22;10407;53.238;10.448;2022-10-16T00:26:26;14.30;99.90
20498;DHT22;10407;53.238;10.448;2022-10-16T00:28:54;14.30;99.90
20498;DHT22;10407;53.238;10.448;2022-10-16T00:31:22;14.30;99.90
20498;DHT22;10407;53.238;10.448;2022-10-16T00:33:50;14.30;99.90
20498;DHT22;10407;53.238;10.448;2022-10-16T00:36:20;14.30;99.90
20498;DHT22;10407;53.238;10.448;2022-10-16T00:38:50;14.30;99.90
20498;DHT22;10407;53.238;10.448;2022-10-16T00:41:21;14.20;99.90
20498;DHT22;10407;53.238;10.448;2022-10-16T00:43:52;14.20;99.90
20498;DHT22;10407;53.238;10.448;2022-10-16T00:46:40;14.20;99.90
20498;DHT22;10407;53.238;10.448;2022-10-16T00:49:10;14.20;99.90
20498;DHT22;10407;53.238;10.448;2022-10-16T00:51:46;14.30;99.90
20498;DHT22;10407;53.238;10.448;2022-10-16T00:54:29;14.20;99.90
20498;DHT22;10407;53.238;10.448;2022-10-16T00:57:04;14.20;99.90
20498;DHT22;10407;53.238;10.448;2022-10-16T00:59:33;14.20;99.90
20498;DHT22;10407;53.238;10.448;2022-10-16T01:02:01;14.20;99.90
20498;DHT22;10407;53.238;10.448;2022-10-16T01:04:38;14.20;99.90
20498;DHT22;10407;53.238;10.448;2022-10-16T01:09:58;14.00;99.90
20498;DHT22;10407;53.238;10.448;2022-10-16T01:12:47;14.00;99.90
20498;DHT22;10407;53.238;10.448;2022-10-16T01:15:25;14.00;99.90
20498;DHT22;10407;53.238;10.448;2022-10-16T01:18:00;13.90;99.90
20498;DHT22;10407;53.238;10.448;2022-10-16T01:20:33;13.90;99.90
20498;DHT22;10407;53.238;10.448;2022-10-16T01:28:28;13.90;99.90
20498;DHT22;10407;53.238;10.448;2022-10-16T01:30:58;13.80;99.90
20498;DHT22;10407;53.238;10.448;2022-10-16T01:33:30;13.90;99.90
20498;DHT22;10407;53.238;10.448;2022-10-16T01:36:00;13.80;99.90
20498;DHT22;10407;53.238;10.448;2022-10-16T01:38:36;13.80;99.90
20498;DHT22;10407;53.238;10.448;2022-10-16T01:41:12;13.90;99.90
20498;DHT22;10407;53.238;10.448;2022-10-16T01:43:45;13.90;99.90
20498;DHT22;10407;53.238;10.448;2022-10-16T01:46:10;13.70;99.90
20498;DHT22;10407;53.238;10.448;2022-10-16T01:48:38;13.60;99.90
20498;DHT22;10407;53.238;10.448;2022-10-16T01:51:11;13.70;99.90
20498;DHT22;10407;53.238;10.448;2022-10-16T01:53:45;13.70;99.90
20498;DHT22;10407;53.238;10.448;2022-10-16T01:56:14;13.80;99.90
20498;DHT22;10407;53.238;10.448;2022-10-16T01:58:54;13.70;99.90
20498;DHT22;10407;53.238;10.448;2022-10-16T02:01:15;13.60;99.90
20498;DHT22;10407;53.238;10.448;2022-10-16T02:03:44;13.70;99.90
20498;DHT22;10407;53.238;10.448;2022-10-16T02:06:13;13.50;99.90
20498;DHT22;10407;53.238;10.448;2022-10-16T02:08:41;13.50;99.90
20498;DHT22;10407;53.238;10.448;2022-10-16T02:11:11;13.40;99.90
20498;DHT22;10407;53.238;10.448;2022-10-16T02:13:58;13.40;99.90
20498;DHT22;10407;53.238;10.448;2022-10-16T02:19:04;13.60;99.90
20498;DHT22;10407;53.238;10.448;2022-10-16T02:24:09;13.60;99.90
20498;DHT22;10407;53.238;10.448;2022-10-16T02:29:12;13.60;99.90
20498;DHT22;10407;53.238;10.448;2022-10-16T02:31:43;13.60;99.90
20498;DHT22;10407;53.238;10.448;2022-10-16T02:34:11;13.60;99.90
20498;DHT22;10407;53.238;10.448;2022-10-16T02:36:40;13.60;99.90
20498;DHT22;10407;53.238;10.448;2022-10-16T02:39:10;13.50;99.90
20498;DHT22;10407;53.238;10.448;2022-10-16T02:41:38;13.60;99.90
20498;DHT22;10407;53.238;10.448;2022-10-16T02:44:05;13.60;99.90
20498;DHT22;10407;53.238;10.448;2022-10-16T02:46:33;13.50;99.90
20498;DHT22;10407;53.238;10.448;2022-10-16T02:49:01;13.50;99.90
20498;DHT22;10407;53.238;10.448;2022-10-16T02:51:29;13.40;99.90
20498;DHT22;10407;53.238;10.448;2022-10-16T02:53:56;13.50;99.90
20498;DHT22;10407;53.238;10.448;2022-10-16T02:56:23;13.50;99.90
20498;DHT22;10407;53.238;10.448;2022-10-16T02:58:51;13.40;99.90
20498;DHT22;10407;53.238;10.448;2022-10-16T03:01:18;13.40;99.90
20498;DHT22;10407;53.238;10.448;2022-10-16T03:03:46;13.40;99.90
20498;DHT22;10407;53.238;10.448;2022-10-16T03:06:14;13.30;99.90
20498;DHT22;10407;53.238;10.448;2022-10-16T03:08:41;13.40;99.90
20498;DHT22;10407;53.238;10.448;2022-10-16T03:11:09;13.30;99.90
20498;DHT22;10407;53.238;10.448;2022-10-16T03:13:36;13.30;99.90
20498;DHT22;10407;53.238;10.448;2022-10-16T03:16:04;13.30;99.90
20498;DHT22;10407;53.238;10.448;2022-10-16T03:18:31;13.30;99.90
20498;DHT22;10407;53.238;10.448;2022-10-16T03:20:59;13.30;99.90
20498;DHT22;10407;53.238;10.448;2022-10-16T03:23:26;13.30;99.90
20498;DHT22;10407;53.238;10.448;2022-10-16T03:25:54;13.30;99.90
20498;DHT22;10407;53.238;10.448;2022-10-16T03:28:22;13.30;99.90
20498;DHT22;10407;53.238;10.448;2022-10-16T03:30:49;13.30;99.90
20498;DHT22;10407;53.238;10.448;2022-10-16T03:33:17;13.30;99.90
20498;DHT22;10407;53.238;10.448;2022-10-16T03:35:50;13.20;99.90
20498;DHT22;10407;53.238;10.448;2022-10-16T03:38:15;13.20;99.90
20498;DHT22;10407;53.238;10.448;2022-10-16T03:40:42;13.20;99.90
20498;DHT22;10407;53.238;10.448;2022-10-16T03:43:10;13.20;99.90
20498;DHT22;10407;53.238;10.448;2022-10-16T03:45:37;13.20;99.90
20498;DHT22;10407;53.238;10.448;2022-10-16T03:48:05;13.10;99.90
20498;DHT22;10407;53.238;10.448;2022-10-16T03:50:32;13.20;99.90
20498;DHT22;10407;53.238;10.448;2022-10-16T03:53:00;13.20;99.90
20498;DHT22;10407;53.238;10.448;2022-10-16T03:55:27;13.20;99.90
20498;DHT22;10407;53.238;10.448;2022-10-16T03:57:55;13.10;99.90
20498;DHT22;10407;53.238;10.448;2022-10-16T04:00:22;13.20;99.90
20498;DHT22;10407;53.238;10.448;2022-10-16T04:02:50;13.10;99.90
20498;DHT22;10407;53.238;10.448;2022-10-16T04:05:17;13.20;99.90
20498;DHT22;10407;53.238;10.448;2022-10-16T04:07:45;13.10;99.90
20498;DHT22;10407;53.238;10.448;2022-10-16T04:10:12;13.00;99.90
20498;DHT22;10407;53.238;10.448;2022-10-16T04:12:40;13.10;99.90
20498;DHT22;10407;53.238;10.448;2022-10-16T04:15:08;13.00;99.90
20498;DHT22;10407;53.238;10.448;2022-10-16T04:17:36;13.00;99.90
20498;DHT22;10407;53.238;10.448;2022-10-16T04:20:06;13.00;99.90
20498;DHT22;10407;53.238;10.448;2022-10-16T04:22:33;13.20;99.90
20498;DHT22;10407;53.238;10.448;2022-10-16T04:25:00;12.90;99.90
20498;DHT22;10407;53.238;10.448;2022-10-16T04:27:28;13.00;99.90
20498;DHT22;10407;53.238;10.448;2022-10-16T04:29:59;12.80;99.90
20498;DHT22;10407;53.238;10.448;2022-10-16T04:32:27;12.80;99.90
20498;DHT22;10407;53.238;10.448;2022-10-16T04:34:55;13.00;99.90
20498;DHT22;10407;53.238;10.448;2022-10-16T04:37:25;13.10;99.90
20498;DHT22;10407;53.238;10.448;2022-10-16T04:39:54;13.20;99.90
20498;DHT22;10407;53.238;10.448;2022-10-16T04:42:21;13.20;99.90
20498;DHT22;10407;53.238;10.448;2022-10-16T04:44:49;13.20;99.90
20498;DHT22;10407;53.238;10.448;2022-10-16T04:47:16;13.10;99.90
20498;DHT22;10407;53.238;10.448;2022-10-16T04:49:44;13.10;99.90
20498;DHT22;10407;53.238;10.448;2022-10-16T04:52:11;13.10;99.90
20498;DHT22;10407;53.238;10.448;2022-10-16T04:54:39;13.20;99.90
20498;DHT22;10407;53.238;10.448;2022-10-16T04:57:06;13.10;99.90
20498;DHT22;10407;53.238;10.448;2022-10-16T04:59:34;13.20;99.90
20498;DHT22;10407;53.238;10.448;2022-10-16T05:02:01;13.20;99.90
20498;DHT22;10407;53.238;10.448;2022-10-16T05:04:29;13.20;99.90
20498;DHT22;10407;53.238;10.448;2022-10-16T05:06:56;13.10;99.90
20498;DHT22;10407;53.238;10.448;2022-10-16T05:09:24;13.10;99.90
20498;DHT22;10407;53.238;10.448;2022-10-16T05:11:51;13.10;99.90
20498;DHT22;10407;53.238;10.448;2022-10-16T05:14:19;12.90;99.90
20498;DHT22;10407;53.238;10.448;2022-10-16T05:16:46;12.90;99.90
20498;DHT22;10407;53.238;10.448;2022-10-16T05:19:14;13.00;99.90
20498;DHT22;10407;53.238;10.448;2022-10-16T05:21:42;13.00;99.90
20498;DHT22;10407;53.238;10.448;2022-10-16T05:24:09;12.90;99.90
20498;DHT22;10407;53.238;10.448;2022-10-16T05:26:37;12.90;99.90
20498;DHT22;10407;53.238;10.448;2022-10-16T05:29:04;12.90;99.90
20498;DHT22;10407;53.238;10.448;2022-10-16T05:31:32;12.90;99.90
20498;DHT22;10407;53.238;10.448;2022-10-16T05:34:00;12.80;99.90
20498;DHT22;10407;53.238;10.448;2022-10-16T05:36:28;12.90;99.90
20498;DHT22;10407;53.238;10.448;2022-10-16T05:38:55;13.00;99.90
20498;DHT22;10407;53.238;10.448;2022-10-16T05:41:23;13.00;99.90
20498;DHT22;10407;53.238;10.448;2022-10-16T05:43:52;13.00;99.90
20498;DHT22;10407;53.238;10.448;2022-10-16T05:46:20;12.90;99.90
20498;DHT22;10407;53.238;10.448;2022-10-16T05:48:48;13.00;99.90
20498;DHT22;10407;53.238;10.448;2022-10-16T05:51:17;12.90;99.90
20498;DHT22;10407;53.238;10.448;2022-10-16T05:53:44;13.00;99.90
20498;DHT22;10407;53.238;10.448;2022-10-16T05:56:12;13.00;99.90
20498;DHT22;10407;53.238;10.448;2022-10-16T05:58:40;13.00;99.90
20498;DHT22;10407;53.238;10.448;2022-10-16T06:01:13;12.90;99.90
20498;DHT22;10407;53.238;10.448;2022-10-16T06:03:41;12.90;99.90
20498;DHT22;10407;53.238;10.448;2022-10-16T06:06:11;13.10;99.90
20498;DHT22;10407;53.238;10.448;2022-10-16T06:08:40;12.80;99.90
20498;DHT22;10407;53.238;10.448;2022-10-16T06:11:10;13.10;99.90
20498;DHT22;10407;53.238;10.448;2022-10-16T06:13:38;13.10;99.90
20498;DHT22;10407;53.238;10.448;2022-10-16T06:16:08;13.00;99.90
20498;DHT22;10407;53.238;10.448;2022-10-16T06:18:36;13.10;99.90
20498;DHT22;10407;53.238;10.448;2022-10-16T06:21:09;13.00;99.90
20498;DHT22;10407;53.238;10.448;2022-10-16T06:23:37;13.00;99.90
20498;DHT22;10407;53.238;10.448;2022-10-16T06:26:09;12.90;99.90
20498;DHT22;10407;53.238;10.448;2022-10-16T06:28:38;13.00;99.90
20498;DHT22;10407;53.238;10.448;2022-10-16T06:31:07;13.10;99.90
20498;DHT22;10407;53.238;10.448;2022-10-16T06:33:36;13.10;99.90
20498;DHT22;10407;53.238;10.448;2022-10-16T06:36:06;12.90;99.90
20498;DHT22;10407;53.238;10.448;2022-10-16T06:38:35;12.80;99.90
20498;DHT22;10407;53.238;10.448;2022-10-16T06:41:03;12.90;99.90
20498;DHT22;10407;53.238;10.448;2022-10-16T06:43:32;13.00;99.90
20498;DHT22;10407;53.238;10.448;2022-10-16T06:46:02;13.00;99.90
20498;DHT22;10407;53.238;10.448;2022-10-16T06:48:30;13.00;99.90
20498;DHT22;10407;53.238;10.448;2022-10-16T06:51:12;12.90;99.90
20498;DHT22;10407;53.238;10.448;2022-10-16T06:53:48;12.80;99.90
20498;DHT22;10407;53.238;10.448;2022-10-16T06:56:24;12.90;99.90
20498;DHT22;10407;53.238;10.448;2022-10-16T06:58:52;13.00;99.90
20498;DHT22;10407;53.238;10.448;2022-10-16T07:01:22;13.10;99.90
20498;DHT22;10407;53.238;10.448;2022-10-16T07:03:50;13.20;99.90
20498;DHT22;10407;53.238;10.448;2022-10-16T07:06:20;13.20;99.90
20498;DHT22;10407;53.238;10.448;2022-10-16T07:08:48;13.30;99.90
20498;DHT22;10407;53.238;10.448;2022-10-16T07:11:18;13.30;99.90
20498;DHT22;10407;53.238;10.448;2022-10-16T07:13:47;13.40;99.90
20498;DHT22;10407;53.238;10.448;2022-10-16T07:16:17;13.20;99.90
20498;DHT22;10407;53.238;10.448;2022-10-16T07:18:45;13.30;99.90
20498;DHT22;10407;53.238;10.448;2022-10-16T07:21:19;13.70;99.90
20498;DHT22;10407;53.238;10.448;2022-10-16T07:23:43;13.90;99.90
20498;DHT22;10407;53.238;10.448;2022-10-16T07:26:11;14.00;99.90
20498;DHT22;10407;53.238;10.448;2022-10-16T07:28:39;14.60;99.90
20498;DHT22;10407;53.238;10.448;2022-10-16T07:31:08;15.00;99.90
20498;DHT22;10407;53.238;10.448;2022-10-16T07:33:38;14.80;99.90
20498;DHT22;10407;53.238;10.448;2022-10-16T07:36:06;14.90;99.90
20498;DHT22;10407;53.238;10.448;2022-10-16T07:38:34;15.10;99.90
20498;DHT22;10407;53.238;10.448;2022-10-16T07:41:04;14.90;99.90
20498;DHT22;10407;53.238;10.448;2022-10-16T07:43:32;14.70;99.90
20498;DHT22;10407;53.238;10.448;2022-10-16T07:46:01;15.10;99.90
20498;DHT22;10407;53.238;10.448;2022-10-16T07:48:30;14.90;99.90
20498;DHT22;10407;53.238;10.448;2022-10-16T07:51:00;15.40;99.90
20498;DHT22;10407;53.238;10.448;2022-10-16T07:53:28;15.90;99.90
20498;DHT22;10407;53.238;10.448;2022-10-16T07:56:04;16.30;99.90
20498;DHT22;10407;53.238;10.448;2022-10-16T07:58:33;16.50;99.90
20498;DHT22;10407;53.238;10.448;2022-10-16T08:01:08;16.40;99.90
20498;DHT22;10407;53.238;10.448;2022-10-16T08:03:36;16.70;99.90
20498;DHT22;10407;53.238;10.448;2022-10-16T08:06:04;17.40;99.90
20498;DHT22;10407;53.238;10.448;2022-10-16T08:08:32;17.40;99.90
20498;DHT22;10407;53.238;10.448;2022-10-16T08:10:59;17.70;99.90
20498;DHT22;10407;53.238;10.448;2022-10-16T08:13:29;17.90;99.90
20498;DHT22;10407;53.238;10.448;2022-10-16T08:15:57;18.00;99.90
20498;DHT22;10407;53.238;10.448;2022-10-16T08:18:24;18.10;99.90
20498;DHT22;10407;53.238;10.448;2022-10-16T08:21:01;17.70;99.90
20498;DHT22;10407;53.238;10.448;2022-10-16T08:23:25;18.10;99.90
20498;DHT22;10407;53.238;10.448;2022-10-16T08:25:56;18.30;99.90
20498;DHT22;10407;53.238;10.448;2022-10-16T08:28:25;17.40;99.90
20498;DHT22;10407;53.238;10.448;2022-10-16T08:30:52;17.00;99.90
20498;DHT22;10407;53.238;10.448;2022-10-16T08:33:20;16.70;99.90
20498;DHT22;10407;53.238;10.448;2022-10-16T08:35:51;16.60;99.90
20498;DHT22;10407;53.238;10.448;2022-10-16T08:38:20;16.20;99.90
20498;DHT22;10407;53.238;10.448;2022-10-16T08:40:48;16.50;99.90
20498;DHT22;10407;53.238;10.448;2022-10-16T08:43:30;16.80;99.90
20498;DHT22;10407;53.238;10.448;2022-10-16T08:49:03;16.80;99.90
20498;DHT22;10407;53.238;10.448;2022-10-16T08:51:06;16.80;99.90
20498;DHT22;10407;53.238;10.448;2022-10-16T08:56:18;18.00;99.90
20498;DHT22;10407;53.238;10.448;2022-10-16T08:58:47;18.20;99.90
20498;DHT22;10407;53.238;10.448;2022-10-16T09:01:17;18.00;99.90
20498;DHT22;10407;53.238;10.448;2022-10-16T09:09:46;17.90;99.90
20498;DHT22;10407;53.238;10.448;2022-10-16T09:12:24;17.80;99.90
20498;DHT22;10407;53.238;10.448;2022-10-16T09:15:05;17.90;99.90
20498;DHT22;10407;53.238;10.448;2022-10-16T09:23:14;18.40;99.90
20498;DHT22;10407;53.238;10.448;2022-10-16T09:25:24;18.30;99.90
20498;DHT22;10407;53.238;10.448;2022-10-16T09:27:53;18.70;99.90
20498;DHT22;10407;53.238;10.448;2022-10-16T09:30:29;18.70;99.90
20498;DHT22;10407;53.238;10.448;2022-10-16T09:32:52;18.60;99.90
20498;DHT22;10407;53.238;10.448;2022-10-16T09:35:24;18.70;99.90
20498;DHT22;10407;53.238;10.448;2022-10-16T09:37:53;18.50;99.90
20498;DHT22;10407;53.238;10.448;2022-10-16T09:40:36;18.50;99.90
20498;DHT22;10407;53.238;10.448;2022-10-16T09:43:22;18.40;99.90
20498;DHT22;10407;53.238;10.448;2022-10-16T09:45:59;18.80;99.90
20498;DHT22;10407;53.238;10.448;2022-10-16T09:48:34;18.80;99.90
20498;DHT22;10407;53.238;10.448;2022-10-16T09:51:03;18.70;99.90
20498;DHT22;10407;53.238;10.448;2022-10-16T09:53:45;19.00;99.90
20498;DHT22;10407;53.238;10.448;2022-10-16T09:56:21;19.10;99.90
20498;DHT22;10407;53.238;10.448;2022-10-16T09:58:54;19.10;99.90
20498;DHT22;10407;53.238;10.448;2022-10-16T10:01:30;18.70;99.90
20498;DHT22;10407;53.238;10.448;2022-10-16T10:03:59;18.90;99.90
20498;DHT22;10407;53.238;10.448;2022-10-16T10:06:30;19.30;99.90
20498;DHT22;10407;53.238;10.448;2022-10-16T10:11:44;19.10;99.90
20498;DHT22;10407;53.238;10.448;2022-10-16T10:17:21;19.40;99.90
20498;DHT22;10407;53.238;10.448;2022-10-16T10:22:31;19.30;99.90
20498;DHT22;10407;53.238;10.448;2022-10-16T10:25:26;19.30;99.90
20498;DHT22;10407;53.238;10.448;2022-10-16T10:30:40;19.40;99.90
20498;DHT22;10407;53.238;10.448;2022-10-16T10:36:19;19.10;99.90
20498;DHT22;10407;53.238;10.448;2022-10-16T10:38:50;19.30;99.90
20498;DHT22;10407;53.238;10.448;2022-10-16T10:42:02;19.40;99.90
20498;DHT22;10407;53.238;10.448;2022-10-16T10:44:51;19.70;99.90
20498;DHT22;10407;53.238;10.448;2022-10-16T10:47:30;19.50;99.90
20498;DHT22;10407;53.238;10.448;2022-10-16T10:50:13;19.80;99.90
20498;DHT22;10407;53.238;10.448;2022-10-16T10:52:43;19.60;99.90
20498;DHT22;10407;53.238;10.448;2022-10-16T10:55:17;19.50;99.90
20498;DHT22;10407;53.238;10.448;2022-10-16T10:57:57;19.30;99.90
20498;DHT22;10407;53.238;10.448;2022-10-16T11:03:33;19.50;99.90
20498;DHT22;10407;53.238;10.448;2022-10-16T11:06:16;19.60;99.90
20498;DHT22;10407;53.238;10.448;2022-10-16T11:08:55;19.70;99.90
20498;DHT22;10407;53.238;10.448;2022-10-16T11:11:24;19.60;99.90
20498;DHT22;10407;53.238;10.448;2022-10-16T11:14:14;19.50;99.90
20498;DHT22;10407;53.238;10.448;2022-10-16T11:16:49;19.60;99.90
20498;DHT22;10407;53.238;10.448;2022-10-16T11:19:35;19.60;99.90
20498;DHT22;10407;53.238;10.448;2022-10-16T11:24:45;19.40;99.90
20498;DHT22;10407;53.238;10.448;2022-10-16T11:27:12;19.50;99.90
20498;DHT22;10407;53.238;10.448;2022-10-16T11:29:46;19.50;99.90
20498;DHT22;10407;53.238;10.448;2022-10-16T11:32:22;18.90;99.90
20498;DHT22;10407;53.238;10.448;2022-10-16T11:35:02;19.20;99.90
20498;DHT22;10407;53.238;10.448;2022-10-16T11:37:24;19.20;99.90
20498;DHT22;10407;53.238;10.448;2022-10-16T11:39:53;18.90;99.90
20498;DHT22;10407;53.238;10.448;2022-10-16T11:42:41;19.20;99.90
20498;DHT22;10407;53.238;10.448;2022-10-16T11:45:35;19.20;99.90
20498;DHT22;10407;53.238;10.448;2022-10-16T11:48:51;19.50;99.90
20498;DHT22;10407;53.238;10.448;2022-10-16T11:50:56;19.30;99.90
20498;DHT22;10407;53.238;10.448;2022-10-16T11:53:45;19.30;99.90
20498;DHT22;10407;53.238;10.448;2022-10-16T11:56:16;19.20;99.90
20498;DHT22;10407;53.238;10.448;2022-10-16T12:01:41;18.90;99.90
20498;DHT22;10407;53.238;10.448;2022-10-16T12:04:26;18.80;99.90
20498;DHT22;10407;53.238;10.448;2022-10-16T12:07:03;18.90;99.90
20498;DHT22;10407;53.238;10.448;2022-10-16T12:09:33;19.00;99.90
20498;DHT22;10407;53.238;10.448;2022-10-16T12:12:01;19.10;99.90
20498;DHT22;10407;53.238;10.448;2022-10-16T12:20:01;18.90;99.90
20498;DHT22;10407;53.238;10.448;2022-10-16T12:22:30;18.90;99.90
20498;DHT22;10407;53.238;10.448;2022-10-16T12:24:58;18.90;99.90
20498;DHT22;10407;53.238;10.448;2022-10-16T12:27:28;18.90;99.90
20498;DHT22;10407;53.238;10.448;2022-10-16T12:29:59;19.00;99.90
20498;DHT22;10407;53.238;10.448;2022-10-16T12:32:30;18.90;99.90
20498;DHT22;10407;53.238;10.448;2022-10-16T12:35:00;18.60;99.90
20498;DHT22;10407;53.238;10.448;2022-10-16T12:37:34;18.90;99.90
20498;DHT22;10407;53.238;10.448;2022-10-16T12:39:59;19.00;99.90
20498;DHT22;10407;53.238;10.448;2022-10-16T12:42:33;18.70;99.90
20498;DHT22;10407;53.238;10.448;2022-10-16T12:45:00;18.70;99.90
20498;DHT22;10407;53.238;10.448;2022-10-16T12:50:03;18.70;99.90
20498;DHT22;10407;53.238;10.448;2022-10-16T12:52:38;18.80;99.90
20498;DHT22;10407;53.238;10.448;2022-10-16T12:55:12;18.80;99.90
20498;DHT22;10407;53.238;10.448;2022-10-16T13:00:32;19.00;99.90
20498;DHT22;10407;53.238;10.448;2022-10-16T13:05:57;19.10;99.90
20498;DHT22;10407;53.238;10.448;2022-10-16T13:25:08;19.00;99.90
20498;DHT22;10407;53.238;10.448;2022-10-16T13:28:03;19.00;99.90
20498;DHT22;10407;53.238;10.448;2022-10-16T13:33:19;18.80;99.90
20498;DHT22;10407;53.238;10.448;2022-10-16T13:35:51;18.70;99.90
20498;DHT22;10407;53.238;10.448;2022-10-16T13:38:25;18.70;99.90
20498;DHT22;10407;53.238;10.448;2022-10-16T13:40:59;18.70;99.90
20498;DHT22;10407;53.238;10.448;2022-10-16T13:43:52;18.90;99.90
20498;DHT22;10407;53.238;10.448;2022-10-16T13:46:18;18.90;99.90
20498;DHT22;10407;53.238;10.448;2022-10-16T13:48:57;18.90;99.90
20498;DHT22;10407;53.238;10.448;2022-10-16T13:51:26;18.80;99.90
20498;DHT22;10407;53.238;10.448;2022-10-16T13:53:56;18.80;99.90
20498;DHT22;10407;53.238;10.448;2022-10-16T13:56:26;18.80;99.90
20498;DHT22;10407;53.238;10.448;2022-10-16T13:59:02;18.70;99.90
20498;DHT22;10407;53.238;10.448;2022-10-16T14:01:35;18.70;99.90
20498;DHT22;10407;53.238;10.448;2022-10-16T14:04:09;18.80;99.90
20498;DHT22;10407;53.238;10.448;2022-10-16T14:06:46;18.70;99.90
20498;DHT22;10407;53.238;10.448;2022-10-16T14:09:31;18.60;99.90
20498;DHT22;10407;53.238;10.448;2022-10-16T14:12:01;18.60;99.90
20498;DHT22;10407;53.238;10.448;2022-10-16T14:14:31;18.70;99.90
20498;DHT22;10407;53.238;10.448;2022-10-16T14:16:57;18.80;99.90
20498;DHT22;10407;53.238;10.448;2022-10-16T14:19:26;18.80;99.90
20498;DHT22;10407;53.238;10.448;2022-10-16T14:21:55;18.60;99.90
20498;DHT22;10407;53.238;10.448;2022-10-16T14:24:25;18.60;99.90
20498;DHT22;10407;53.238;10.448;2022-10-16T14:26:53;18.40;99.90
20498;DHT22;10407;53.238;10.448;2022-10-16T14:29:26;18.50;99.90
20498;DHT22;10407;53.238;10.448;2022-10-16T14:31:56;18.40;99.90
20498;DHT22;10407;53.238;10.448;2022-10-16T14:34:52;18.30;99.90
20498;DHT22;10407;53.238;10.448;2022-10-16T14:37:01;18.30;99.90
20498;DHT22;10407;53.238;10.448;2022-10-16T14:39:31;18.30;99.90
20498;DHT22;10407;53.238;10.448;2022-10-16T14:41:59;18.40;99.90
20498;DHT22;10407;53.238;10.448;2022-10-16T14:44:32;18.20;99.90
20498;DHT22;10407;53.238;10.448;2022-10-16T14:47:08;18.30;99.90
20498;DHT22;10407;53.238;10.448;2022-10-16T14:49:36;18.30;99.90
20498;DHT22;10407;53.238;10.448;2022-10-16T14:52:09;18.20;99.90
20498;DHT22;10407;53.238;10.448;2022-10-16T14:54:37;18.20;99.90
20498;DHT22;10407;53.238;10.448;2022-10-16T14:57:05;18.10;99.90
20498;DHT22;10407;53.238;10.448;2022-10-16T14:59:39;18.00;99.90
20498;DHT22;10407;53.238;10.448;2022-10-16T15:02:32;18.00;99.90
20498;DHT22;10407;53.238;10.448;2022-10-16T15:05:19;18.00;99.90
20498;DHT22;10407;53.238;10.448;2022-10-16T15:07:43;17.90;99.90
20498;DHT22;10407;53.238;10.448;2022-10-16T15:10:13;17.80;99.90
20498;DHT22;10407;53.238;10.448;2022-10-16T15:12:40;17.90;99.90
20498;DHT22;10407;53.238;10.448;2022-10-16T15:15:26;17.90;99.90
20498;DHT22;10407;53.238;10.448;2022-10-16T15:17:55;17.90;99.90
20498;DHT22;10407;53.238;10.448;2022-10-16T15:20:24;17.80;99.90
20498;DHT22;10407;53.238;10.448;2022-10-16T15:22:52;17.80;99.90
20498;DHT22;10407;53.238;10.448;2022-10-16T15:25:38;17.80;99.90
20498;DHT22;10407;53.238;10.448;2022-10-16T15:28:04;17.60;99.90
20498;DHT22;10407;53.238;10.448;2022-10-16T15:30:32;17.60;99.90
20498;DHT22;10407;53.238;10.448;2022-10-16T15:32:59;17.60;99.90
20498;DHT22;10407;53.238;10.448;2022-10-16T15:35:27;17.60;99.90
20498;DHT22;10407;53.238;10.448;2022-10-16T15:37:54;17.50;99.90
20498;DHT22;10407;53.238;10.448;2022-10-16T15:40:22;17.50;99.90
20498;DHT22;10407;53.238;10.448;2022-10-16T15:42:50;17.40;99.90
20498;DHT22;10407;53.238;10.448;2022-10-16T15:45:17;17.50;99.90
20498;DHT22;10407;53.238;10.448;2022-10-16T15:47:46;17.50;99.90
20498;DHT22;10407;53.238;10.448;2022-10-16T15:50:15;17.40;99.90
20498;DHT22;10407;53.238;10.448;2022-10-16T15:52:43;17.30;99.90
20498;DHT22;10407;53.238;10.448;2022-10-16T15:55:12;17.30;99.90
20498;DHT22;10407;53.238;10.448;2022-10-16T15:57:41;17.20;99.90
20498;DHT22;10407;53.238;10.448;2022-10-16T16:00:13;17.10;99.90
20498;DHT22;10407;53.238;10.448;2022-10-16T16:02:41;17.10;99.90
20498;DHT22;10407;53.238;10.448;2022-10-16T16:05:10;16.90;99.90
20498;DHT22;10407;53.238;10.448;2022-10-16T16:07:38;16.90;99.90
20498;DHT22;10407;53.238;10.448;2022-10-16T16:10:09;17.00;99.90
20498;DHT22;10407;53.238;10.448;2022-10-16T16:12:37;16.90;99.90
20498;DHT22;10407;53.238;10.448;2022-10-16T16:15:07;16.80;99.90
20498;DHT22;10407;53.238;10.448;2022-10-16T16:17:35;16.70;99.90
20498;DHT22;10407;53.238;10.448;2022-10-16T16:20:04;16.70;99.90
20498;DHT22;10407;53.238;10.448;2022-10-16T16:22:32;16.70;99.90
20498;DHT22;10407;53.238;10.448;2022-10-16T16:24:59;16.70;99.90
20498;DHT22;10407;53.238;10.448;2022-10-16T16:27:27;16.50;99.90
20498;DHT22;10407;53.238;10.448;2022-10-16T16:29:56;16.50;99.90
20498;DHT22;10407;53.238;10.448;2022-10-16T16:32:24;16.40;99.90
20498;DHT22;10407;53.238;10.448;2022-10-16T16:34:51;16.40;99.90
20498;DHT22;10407;53.238;10.448;2022-10-16T16:37:19;16.40;99.90
20498;DHT22;10407;53.238;10.448;2022-10-16T16:39:46;16.30;99.90
20498;DHT22;10407;53.238;10.448;2022-10-16T16:42:14;16.20;99.90
20498;DHT22;10407;53.238;10.448;2022-10-16T16:44:42;16.20;99.90
20498;DHT22;10407;53.238;10.448;2022-10-16T16:47:09;16.10;99.90
20498;DHT22;10407;53.238;10.448;2022-10-16T16:49:37;16.00;99.90
20498;DHT22;10407;53.238;10.448;2022-10-16T16:52:04;15.90;99.90
20498;DHT22;10407;53.238;10.448;2022-10-16T16:54:32;15.80;99.90
20498;DHT22;10407;53.238;10.448;2022-10-16T16:57:00;15.70;99.90
20498;DHT22;10407;53.238;10.448;2022-10-16T16:59:27;15.60;99.90
20498;DHT22;10407;53.238;10.448;2022-10-16T17:01:56;15.40;99.90
20498;DHT22;10407;53.238;10.448;2022-10-16T17:04:24;15.30;99.90
20498;DHT22;10407;53.238;10.448;2022-10-16T17:06:53;15.30;99.90